Time,TemperatureF,DewpointF,PressureIn,WindDirection,WindDirectionDegrees,WindSpeedMPH,WindSpeedGustMPH,Humidity,HourlyPrecipIn,Conditions,Clouds,dailyrainin,SoftwareType,DateUTC
2013-03-11 00:03:00,54.0,38.0,30.16,East,82,1.0,3.0,54,0.00,,,0.00,,2013-03-11 04:03:00,
2013-03-11 00:12:00,54.0,38.0,30.16,East,82,1.0,3.0,54,0.00,,,0.00,,2013-03-11 04:12:00,
2013-03-11 00:22:00,54.0,38.0,30.16,ESE,119,2.0,5.0,55,0.00,,,0.00,,2013-03-11 04:22:00,
2013-03-11 00:33:00,55.0,39.0,30.16,ESE,119,1.0,6.0,54,0.00,,,0.00,,2013-03-11 04:33:00,
2013-03-11 00:43:00,55.0,39.0,30.16,ESE,119,1.0,6.0,54,0.00,,,0.00,,2013-03-11 04:43:00,
2013-03-11 00:53:00,54.0,38.0,30.16,SE,142,1.0,4.0,55,0.00,,,0.00,,2013-03-11 04:53:00,
2013-03-11 01:03:00,54.0,39.0,30.16,ESE,119,1.0,3.0,56,0.00,,,0.00,,2013-03-11 05:03:00,
2013-03-11 01:12:00,54.0,39.0,30.16,ESE,119,1.0,3.0,56,0.00,,,0.00,,2013-03-11 05:12:00,
2013-03-11 01:22:00,53.0,39.0,30.16,ESE,120,1.0,3.0,58,0.00,,,0.00,,2013-03-11 05:22:00,
2013-03-11 01:32:00,53.0,39.0,30.16,ESE,120,1.0,3.0,58,0.00,,,0.00,,2013-03-11 05:32:00,
2013-03-11 01:43:00,53.0,39.0,30.16,ESE,120,1.0,3.0,58,0.00,,,0.00,,2013-03-11 05:43:00,
2013-03-11 01:52:00,51.0,40.0,30.15,SSE,158,0.0,3.0,65,0.00,,,0.00,,2013-03-11 05:52:00,
2013-03-11 02:02:00,52.0,42.0,30.15,South,170,2.0,6.0,68,0.00,,,0.00,,2013-03-11 06:02:00,
2013-03-11 02:12:00,52.0,42.0,30.15,South,170,2.0,6.0,68,0.00,,,0.00,,2013-03-11 06:12:00,
2013-03-11 02:22:00,52.0,43.0,30.14,SE,131,2.0,5.0,70,0.00,,,0.00,,2013-03-11 06:22:00,
2013-03-11 02:33:00,52.0,43.0,30.15,South,183,1.0,5.0,72,0.00,,,0.00,,2013-03-11 06:33:00,
2013-03-11 02:42:00,52.0,43.0,30.15,South,183,1.0,5.0,72,0.00,,,0.00,,2013-03-11 06:42:00,
2013-03-11 02:52:00,52.0,44.0,30.15,SSE,159,1.0,3.0,74,0.00,,,0.00,,2013-03-11 06:52:00,
2013-03-11 03:03:00,52.0,44.0,30.15,SW,217,1.0,4.0,75,0.00,,,0.00,,2013-03-11 07:03:00,
2013-03-11 03:12:00,52.0,44.0,30.15,SW,217,1.0,4.0,75,0.00,,,0.00,,2013-03-11 07:12:00,
2013-03-11 03:22:00,52.0,44.0,30.15,SW,217,1.0,4.0,75,0.00,,,0.00,,2013-03-11 07:22:00,
2013-03-11 03:32:00,51.0,44.0,30.13,SSE,148,0.0,3.0,78,0.00,,,0.00,,2013-03-11 07:32:00,
2013-03-11 03:42:00,51.0,44.0,30.13,SSE,148,0.0,3.0,78,0.00,,,0.00,,2013-03-11 07:42:00,
2013-03-11 03:52:00,51.0,45.0,30.12,SSE,153,0.0,2.0,79,0.00,,,0.00,,2013-03-11 07:52:00,
2013-03-11 04:02:00,51.0,45.0,30.11,SE,141,1.0,5.0,80,0.00,,,0.00,,2013-03-11 08:02:00,
2013-03-11 04:12:00,51.0,45.0,30.11,SE,141,1.0,5.0,80,0.00,,,0.00,,2013-03-11 08:12:00,
2013-03-11 04:22:00,50.0,45.0,30.11,SE,138,0.0,3.0,82,0.00,,,0.00,,2013-03-11 08:22:00,
2013-03-11 04:33:00,50.0,45.0,30.12,WSW,254,1.0,3.0,83,0.00,,,0.00,,2013-03-11 08:33:00,
2013-03-11 04:42:00,50.0,45.0,30.12,WSW,254,1.0,3.0,83,0.00,,,0.00,,2013-03-11 08:42:00,
2013-03-11 04:52:00,50.0,45.0,30.11,SSW,196,1.0,4.0,84,0.00,,,0.00,,2013-03-11 08:52:00,
2013-03-11 05:02:00,49.0,45.0,30.10,SSW,196,0.0,1.0,85,0.00,,,0.00,,2013-03-11 09:02:00,
2013-03-11 05:12:00,49.0,45.0,30.10,SSW,196,0.0,1.0,85,0.00,,,0.00,,2013-03-11 09:12:00,
2013-03-11 05:23:00,49.0,45.0,30.09,SSW,196,0.0,1.0,86,0.00,,,0.00,,2013-03-11 09:23:00,
2013-03-11 05:32:00,50.0,46.0,30.08,SSW,196,0.0,2.0,85,0.00,,,0.00,,2013-03-11 09:32:00,
2013-03-11 05:42:00,50.0,46.0,30.08,SSW,196,0.0,2.0,85,0.00,,,0.00,,2013-03-11 09:42:00,
2013-03-11 06:02:00,50.0,45.0,30.09,SSW,192,0.0,2.0,83,0.00,,,0.00,,2013-03-11 10:02:00,
2013-03-11 06:12:00,50.0,45.0,30.09,SSW,192,0.0,2.0,83,0.00,,,0.00,,2013-03-11 10:12:00,
2013-03-11 06:22:00,51.0,46.0,30.08,SE,137,1.0,3.0,82,0.00,,,0.00,,2013-03-11 10:22:00,
2013-03-11 06:32:00,51.0,45.0,30.08,ESE,123,1.0,4.0,81,0.00,,,0.00,,2013-03-11 10:32:00,
2013-03-11 06:42:00,51.0,45.0,30.08,ESE,123,1.0,4.0,81,0.00,,,0.00,,2013-03-11 10:42:00,
2013-03-11 06:52:00,50.0,44.0,30.07,West,276,2.0,5.0,81,0.00,,,0.00,,2013-03-11 10:52:00,
2013-03-11 07:02:00,50.0,44.0,30.09,SE,127,1.0,3.0,80,0.00,,,0.00,,2013-03-11 11:02:00,
2013-03-11 07:12:00,50.0,44.0,30.09,SE,127,1.0,3.0,80,0.00,,,0.00,,2013-03-11 11:12:00,
2013-03-11 07:22:00,51.0,44.0,30.09,South,190,3.0,6.0,78,0.00,,,0.00,,2013-03-11 11:22:00,
2013-03-11 07:33:00,51.0,44.0,30.09,SSE,167,1.0,2.0,78,0.00,,,0.00,,2013-03-11 11:33:00,
2013-03-11 07:42:00,51.0,44.0,30.09,SSE,167,1.0,2.0,78,0.00,,,0.00,,2013-03-11 11:42:00,
2013-03-11 07:52:00,50.0,43.0,30.09,SSE,148,1.0,3.0,78,0.00,,,0.00,,2013-03-11 11:52:00,
2013-03-11 08:02:00,51.0,44.0,30.09,SE,134,2.0,5.0,77,0.00,,,0.00,,2013-03-11 12:02:00,
2013-03-11 08:12:00,51.0,44.0,30.09,SE,134,2.0,5.0,77,0.00,,,0.00,,2013-03-11 12:12:00,
2013-03-11 08:22:00,51.0,44.0,30.09,SSE,148,1.0,4.0,77,0.00,,,0.00,,2013-03-11 12:22:00,
2013-03-11 08:33:00,51.0,44.0,30.08,South,175,2.0,5.0,76,0.00,,,0.00,,2013-03-11 12:33:00,
2013-03-11 08:43:00,51.0,44.0,30.08,South,175,2.0,5.0,76,0.00,,,0.00,,2013-03-11 12:43:00,
2013-03-11 08:53:00,52.0,45.0,30.09,SE,144,1.0,9.0,76,0.00,,,0.00,,2013-03-11 12:53:00,
2013-03-11 09:02:00,52.0,44.0,30.09,South,169,2.0,5.0,75,0.00,,,0.00,,2013-03-11 13:02:00,
2013-03-11 09:12:00,52.0,44.0,30.09,South,169,2.0,5.0,75,0.00,,,0.00,,2013-03-11 13:12:00,
2013-03-11 09:22:00,52.0,45.0,30.09,SW,229,2.0,6.0,76,0.00,,,0.00,,2013-03-11 13:22:00,
2013-03-11 09:32:00,52.0,44.0,30.09,SSW,202,2.0,4.0,75,0.00,,,0.00,,2013-03-11 13:32:00,
2013-03-11 09:42:00,52.0,44.0,30.09,SSW,202,2.0,4.0,75,0.00,,,0.00,,2013-03-11 13:42:00,
2013-03-11 09:53:00,52.0,45.0,30.09,West,266,1.0,5.0,76,0.00,,,0.00,,2013-03-11 13:53:00,
2013-03-11 10:02:00,53.0,45.0,30.08,SSW,211,3.0,6.0,75,0.00,,,0.00,,2013-03-11 14:02:00,
2013-03-11 10:12:00,53.0,45.0,30.08,SSW,211,3.0,6.0,75,0.00,,,0.00,,2013-03-11 14:12:00,
2013-03-11 10:22:00,53.0,45.0,30.08,SE,140,3.0,9.0,75,0.00,,,0.00,,2013-03-11 14:22:00,
2013-03-11 10:33:00,54.0,47.0,30.07,SE,138,1.0,7.0,76,0.00,,,0.00,,2013-03-11 14:33:00,
2013-03-11 10:42:00,54.0,47.0,30.07,SE,138,1.0,7.0,76,0.00,,,0.00,,2013-03-11 14:42:00,
2013-03-11 10:53:00,54.0,47.0,30.06,SW,217,2.0,5.0,76,0.00,,,0.00,,2013-03-11 14:53:00,
2013-03-11 11:02:00,54.0,47.0,30.06,SSE,162,2.0,9.0,78,0.00,,,0.00,,2013-03-11 15:02:00,
2013-03-11 11:13:00,54.0,47.0,30.06,SSE,162,2.0,9.0,78,0.00,,,0.00,,2013-03-11 15:13:00,
2013-03-11 11:23:00,54.0,47.0,30.06,SSE,165,3.0,10.0,78,0.00,,,0.00,,2013-03-11 15:23:00,
2013-03-11 11:32:00,55.0,48.0,30.06,SSW,206,4.0,8.0,78,0.00,,,0.00,,2013-03-11 15:32:00,
2013-03-11 11:42:00,55.0,48.0,30.06,SSW,206,4.0,8.0,78,0.00,,,0.00,,2013-03-11 15:42:00,
2013-03-11 11:53:00,55.0,48.0,30.04,SSE,155,5.0,11.0,77,0.00,,,0.00,,2013-03-11 15:53:00,
2013-03-11 12:02:00,56.0,49.0,30.03,SW,215,3.0,10.0,76,0.00,,,0.00,,2013-03-11 16:02:00,
2013-03-11 12:13:00,56.0,49.0,30.03,SW,215,3.0,10.0,76,0.00,,,0.00,,2013-03-11 16:13:00,
2013-03-11 12:22:00,56.0,49.0,30.03,SW,215,3.0,10.0,76,0.00,,,0.00,,2013-03-11 16:22:00,
2013-03-11 12:32:00,60.0,51.0,30.02,South,187,5.0,12.0,71,0.00,,,0.00,,2013-03-11 16:32:00,
2013-03-11 12:43:00,60.0,51.0,30.02,South,187,5.0,12.0,71,0.00,,,0.00,,2013-03-11 16:43:00,
2013-03-11 12:53:00,62.0,51.0,30.02,SSE,164,5.0,14.0,67,0.00,,,0.00,,2013-03-11 16:53:00,
2013-03-11 13:03:00,62.0,51.0,30.01,SSW,197,6.0,14.0,68,0.00,,,0.00,,2013-03-11 17:03:00,
2013-03-11 13:16:00,62.0,51.0,30.01,SSW,197,6.0,14.0,68,0.00,,,0.00,,2013-03-11 17:16:00,
2013-03-11 13:28:00,63.0,51.0,29.99,WSW,238,7.0,15.0,66,0.00,,,0.00,,2013-03-11 17:28:00,
2013-03-11 13:37:00,63.0,51.0,29.99,WSW,238,7.0,15.0,66,0.00,,,0.00,,2013-03-11 17:37:00,
2013-03-11 13:42:00,63.0,51.0,29.99,WSW,238,7.0,15.0,66,0.00,,,0.00,,2013-03-11 17:42:00,
2013-03-11 13:53:00,64.0,52.0,29.98,SW,225,5.0,15.0,66,0.00,,,0.00,,2013-03-11 17:53:00,
2013-03-11 14:02:00,63.0,52.0,29.96,SSW,211,4.0,19.0,67,0.00,,,0.00,,2013-03-11 18:02:00,
2013-03-11 14:12:00,63.0,52.0,29.96,SSW,211,4.0,19.0,67,0.00,,,0.00,,2013-03-11 18:12:00,
2013-03-11 14:23:00,63.0,52.0,29.96,SSW,211,4.0,19.0,67,0.00,,,0.00,,2013-03-11 18:23:00,
2013-03-11 14:33:00,65.0,52.0,29.94,SW,226,8.0,16.0,63,0.00,,,0.00,,2013-03-11 18:33:00,
2013-03-11 14:42:00,65.0,52.0,29.94,SW,226,8.0,16.0,63,0.00,,,0.00,,2013-03-11 18:42:00,
2013-03-11 14:53:00,66.0,53.0,29.91,SW,225,8.0,17.0,62,0.00,,,0.00,,2013-03-11 18:53:00,
2013-03-11 15:02:00,66.0,53.0,29.92,South,175,6.0,18.0,62,0.00,,,0.00,,2013-03-11 19:02:00,
2013-03-11 15:13:00,66.0,53.0,29.92,South,175,6.0,18.0,62,0.00,,,0.00,,2013-03-11 19:13:00,
2013-03-11 15:23:00,66.0,52.0,29.89,SW,230,5.0,11.0,61,0.00,,,0.00,,2013-03-11 19:23:00,
2013-03-11 15:33:00,66.0,52.0,29.89,South,172,4.0,18.0,61,0.00,,,0.00,,2013-03-11 19:33:00,
2013-03-11 15:42:00,66.0,52.0,29.89,South,172,4.0,18.0,61,0.00,,,0.00,,2013-03-11 19:42:00,
2013-03-11 15:53:00,67.0,53.0,29.88,SSE,158,4.0,11.0,60,0.00,,,0.00,,2013-03-11 19:53:00,
2013-03-11 16:02:00,66.0,52.0,29.88,SSW,202,5.0,13.0,61,0.00,,,0.00,,2013-03-11 20:02:00,
2013-03-11 16:12:00,66.0,52.0,29.88,SSW,202,5.0,13.0,61,0.00,,,0.00,,2013-03-11 20:12:00,
2013-03-11 16:23:00,66.0,52.0,29.88,South,188,8.0,14.0,60,0.00,,,0.00,,2013-03-11 20:23:00,
2013-03-11 16:32:00,66.0,52.0,29.88,South,183,5.0,17.0,60,0.00,,,0.00,,2013-03-11 20:32:00,
2013-03-11 16:43:00,66.0,52.0,29.88,South,183,5.0,17.0,60,0.00,,,0.00,,2013-03-11 20:43:00,
2013-03-11 16:53:00,65.0,51.0,29.87,SSW,202,6.0,14.0,61,0.00,,,0.00,,2013-03-11 20:53:00,
2013-03-11 17:03:00,65.0,52.0,29.87,SSW,198,4.0,13.0,62,0.00,,,0.00,,2013-03-11 21:03:00,
2013-03-11 17:13:00,65.0,52.0,29.87,SSW,198,4.0,13.0,62,0.00,,,0.00,,2013-03-11 21:13:00,
2013-03-11 17:22:00,65.0,52.0,29.85,SSE,166,4.0,10.0,62,0.00,,,0.00,,2013-03-11 21:22:00,
2013-03-11 17:32:00,64.0,51.0,29.85,ESE,105,4.0,11.0,62,0.00,,,0.00,,2013-03-11 21:32:00,
2013-03-11 17:44:00,64.0,51.0,29.85,ESE,105,4.0,11.0,62,0.00,,,0.00,,2013-03-11 21:44:00,
2013-03-11 17:53:00,65.0,52.0,29.84,SSE,157,7.0,15.0,62,0.00,,,0.00,,2013-03-11 21:53:00,
2013-03-11 18:03:00,64.0,51.0,29.83,South,186,3.0,9.0,63,0.00,,,0.00,,2013-03-11 22:03:00,
2013-03-11 18:12:00,64.0,51.0,29.83,South,186,3.0,9.0,63,0.00,,,0.00,,2013-03-11 22:12:00,
2013-03-11 18:23:00,64.0,51.0,29.85,SW,236,3.0,12.0,63,0.00,,,0.00,,2013-03-11 22:23:00,
2013-03-11 18:32:00,64.0,51.0,29.85,SW,236,3.0,12.0,63,0.00,,,0.00,,2013-03-11 22:32:00,
2013-03-11 18:43:00,64.0,51.0,29.85,SW,236,3.0,12.0,63,0.00,,,0.00,,2013-03-11 22:43:00,
2013-03-11 18:53:00,62.0,52.0,29.82,SSE,167,1.0,9.0,71,0.00,,,0.00,,2013-03-11 22:53:00,
2013-03-11 19:03:00,62.0,52.0,29.84,South,173,2.0,9.0,70,0.00,,,0.00,,2013-03-11 23:03:00,
2013-03-11 19:12:00,62.0,52.0,29.84,South,173,2.0,9.0,70,0.00,,,0.00,,2013-03-11 23:12:00,
2013-03-11 19:22:00,62.0,52.0,29.83,South,169,3.0,6.0,69,0.00,,,0.00,,2013-03-11 23:22:00,
2013-03-11 19:32:00,62.0,52.0,29.83,South,171,2.0,9.0,71,0.00,,,0.00,,2013-03-11 23:32:00,
2013-03-11 19:43:00,62.0,52.0,29.83,South,171,2.0,9.0,71,0.00,,,0.00,,2013-03-11 23:43:00,
2013-03-11 19:54:00,60.0,54.0,29.85,South,175,1.0,9.0,80,0.03,,,0.03,,2013-03-11 23:54:00,
2013-03-11 20:02:00,58.0,54.0,29.85,SSW,202,0.0,5.0,85,0.06,,,0.06,,2013-03-12 00:02:00,
2013-03-11 20:12:00,58.0,54.0,29.85,SSW,202,0.0,5.0,85,0.06,,,0.06,,2013-03-12 00:12:00,
2013-03-11 20:23:00,57.0,55.0,29.85,SW,219,1.0,2.0,92,0.09,,,0.09,,2013-03-12 00:23:00,
2013-03-11 20:33:00,56.0,54.0,29.85,SSE,156,0.0,3.0,94,0.11,,,0.11,,2013-03-12 00:33:00,
2013-03-11 20:43:00,56.0,54.0,29.85,SSE,156,0.0,3.0,94,0.11,,,0.11,,2013-03-12 00:43:00,
2013-03-11 20:54:00,56.0,54.0,29.85,SSE,148,0.0,3.0,94,0.10,,,0.14,,2013-03-12 00:54:00,
2013-03-11 21:02:00,56.0,54.0,29.83,SSE,148,0.0,2.0,94,0.09,,,0.15,,2013-03-12 01:02:00,
2013-03-11 21:12:00,56.0,54.0,29.83,SSE,148,0.0,2.0,94,0.09,,,0.15,,2013-03-12 01:12:00,
2013-03-11 21:22:00,56.0,55.0,29.87,WNW,285,2.0,3.0,95,0.08,,,0.17,,2013-03-12 01:22:00,
2013-03-11 21:33:00,56.0,55.0,29.87,NNE,15,0.0,4.0,95,0.15,,,0.26,,2013-03-12 01:33:00,
2013-03-11 21:42:00,56.0,55.0,29.87,NNE,15,0.0,4.0,95,0.15,,,0.26,,2013-03-12 01:42:00,
2013-03-11 21:53:00,56.0,55.0,29.86,NNE,15,0.0,2.0,96,0.18,,,0.32,,2013-03-12 01:53:00,
2013-03-11 22:02:00,56.0,55.0,29.86,NNE,15,0.0,0.0,96,0.20,,,0.35,,2013-03-12 02:02:00,
2013-03-11 22:12:00,56.0,55.0,29.86,NNE,15,0.0,0.0,96,0.20,,,0.35,,2013-03-12 02:12:00,
2013-03-11 22:22:00,56.0,55.0,29.85,NNE,15,0.0,0.0,97,0.24,,,0.41,,2013-03-12 02:22:00,
2013-03-11 22:32:00,56.0,55.0,29.85,NNE,15,0.0,1.0,97,0.20,,,0.47,,2013-03-12 02:32:00,
2013-03-11 22:42:00,56.0,55.0,29.85,NNE,15,0.0,1.0,97,0.20,,,0.47,,2013-03-12 02:42:00,
2013-03-11 22:52:00,56.0,55.0,29.85,NNE,15,0.0,2.0,97,0.21,,,0.53,,2013-03-12 02:52:00,
2013-03-11 23:02:00,56.0,55.0,29.84,NNE,15,0.0,0.0,97,0.21,,,0.56,,2013-03-12 03:02:00,
2013-03-11 23:12:00,56.0,55.0,29.84,NNE,15,0.0,0.0,97,0.21,,,0.56,,2013-03-12 03:12:00,
2013-03-11 23:22:00,56.0,55.0,29.84,NNE,15,0.0,1.0,97,0.17,,,0.57,,2013-03-12 03:22:00,
2013-03-11 23:32:00,56.0,55.0,29.84,NNE,15,0.0,1.0,97,0.17,,,0.57,,2013-03-12 03:32:00,
2013-03-11 23:42:00,56.0,55.0,29.84,NNE,15,0.0,1.0,97,0.17,,,0.57,,2013-03-12 03:42:00,
2013-03-11 23:53:00,56.0,55.0,29.83,East,84,1.0,3.0,98,0.11,,,0.64,,2013-03-12 03:53:00,